Estación Meteorológica Peña el Pijo (Robertgarden) [ 12/11/19 23:03:46 CET ]

Fecha Hora Presion(HPa) Temp (°C) Humedad % Rocio (°C) Viento ( m/s) Direccion Lluvia 1Hora(mm) Lluvia 24H(mm) LLuvia Total(mm)
2019-Oct-01 01:02:02 1010.500 11.1 73 6.5         490.25
2019-Oct-01 02:01:40 1010.200 10.1 73 5.5         490.25
2019-Oct-01 03:01:44 1010.000 9.1 76 5.0         490.25
2019-Oct-01 04:01:39 1009.200 8.6 77 4.8         490.25
2019-Oct-01 05:01:42 1008.700 8.2 78 4.6         490.25
2019-Oct-01 06:01:44 1008.600 7.9 79 4.5         490.25
2019-Oct-01 07:01:49 1008.300 9.9 71 4.9         490.25
2019-Oct-01 08:01:45 1008.200 10.9 66 4.8         490.25
2019-Oct-01 09:01:32 1008.500 11.4 65 5.0         490.25
2019-Oct-01 10:01:37 1008.400 15.1 63 8.1         490.25
2019-Oct-01 11:01:55 1008.600 20.4 54 10.8         490.25
2019-Oct-01 12:01:48 1008.600 24.1 37 8.4         490.25
2019-Oct-01 13:01:50 1008.100 26.3 31 7.8         490.25
2019-Oct-01 14:01:45 1007.700 26.6 30 7.6         490.25
2019-Oct-01 15:01:43 1007.300 27.6 27 6.7         490.25
2019-Oct-01 16:01:54 1007.200 27.9 24 5.2         490.25
2019-Oct-01 17:02:02 1007.000 24.9 28 5.0         490.25
2019-Oct-01 18:01:37 1007.100 24.9 28 5.0         490.25
2019-Oct-01 19:01:55 1007.200 23.3 32 5.6         490.25
2019-Oct-01 20:01:47 1007.400 20.2 40 6.2         490.25
2019-Oct-01 21:01:43 1007.700 18.4 45 6.2         490.25
2019-Oct-01 22:01:42 1008.500 18.4 45 5.8         490.25
2019-Oct-01 23:01:35 1008.700 14.1 55 5.2         490.25

Temperatura Máxima:27°    Temperatura Mínima:
Presión Máxima:1010.500 Hpa    Presión Mínima:1007.000 Hpa


Volver